Time;durP1;ratioP1;P1;durP2;ratioP2;P2;SDS_P1;SDS_P2;PMS_P1;PMS_P2;Temp;Humidity;BMP_temperature;BMP_pressure;BME280_temperature;BME280_humidity;BME280_pressure;Samples;Min_cycle;Max_cycle;Signal;HPM_P1;HPM_P2
2023/07/14 00:01:39;;;;;;;12.35;2.90;;;;;;;27.28;47.50;99696.72;1737447;82;21300;-80
2023/07/14 00:04:47;;;;;;;11.50;3.10;;;;;;;26.86;48.55;99687.95;1737133;82;21299;-80
2023/07/14 00:07:56;;;;;;;9.28;2.80;;;;;;;26.81;48.89;99674.56;1736137;82;21388;-81
2023/07/14 00:11:02;;;;;;;15.32;3.17;;;;;;;26.68;49.45;99675.56;1737558;82;21303;-81
2023/07/14 00:14:08;;;;;;;8.88;2.92;;;;;;;26.84;49.57;99669.20;1737148;82;21331;-81
2023/07/14 00:17:16;;;;;;;13.80;3.35;;;;;;;26.74;50.41;99668.75;1736772;82;21342;-81
2023/07/14 00:20:29;;;;;;;6.70;2.72;;;;;;;26.70;50.93;99669.65;1747546;82;21300;-81
2023/07/14 00:23:36;;;;;;;9.08;3.10;;;;;;;26.57;51.72;99650.16;1748338;82;21330;-80
2023/07/14 00:26:41;;;;;;;7.28;2.92;;;;;;;26.59;52.06;99646.50;1747450;82;21330;-80
2023/07/14 00:29:46;;;;;;;10.50;2.85;;;;;;;26.52;52.75;99647.98;1747548;82;21294;-80
2023/07/14 00:32:54;;;;;;;9.90;3.15;;;;;;;26.55;53.00;99631.97;1747494;82;21330;-80
2023/07/14 00:36:00;;;;;;;10.90;3.27;;;;;;;26.25;53.95;99619.37;1747430;82;21299;-80
2023/07/14 00:38:58;;;;;;;11.18;3.22;;;;;;;26.68;53.13;99606.84;1747309;82;21314;-80
2023/07/14 00:41:51;;;;;;;10.32;3.17;;;;;;;26.57;53.39;99602.48;1722058;82;21302;-80
2023/07/14 00:44:38;;;;;;;9.03;3.30;;;;;;;26.52;53.66;99607.32;1717751;83;21338;-81
2023/07/14 00:47:36;;;;;;;6.72;3.25;;;;;;;26.34;54.24;99597.11;1717341;83;21876;-81
2023/07/14 00:50:47;;;;;;;6.58;2.92;;;;;;;26.18;54.69;99593.66;1717793;83;21302;-81
2023/07/14 00:53:46;;;;;;;6.83;3.52;;;;;;;26.31;54.42;99594.92;1717079;83;21338;-80
2023/07/14 00:56:55;;;;;;;5.95;2.80;;;;;;;26.42;54.04;99585.81;1738785;82;21822;-81
2023/07/14 01:00:01;;;;;;;10.88;3.47;;;;;;;26.30;54.30;99583.98;1747605;82;21318;-80
2023/07/14 01:03:08;;;;;;;8.15;3.60;;;;;;;26.28;54.36;99596.91;1747822;82;21334;-80
2023/07/14 01:06:23;;;;;;;6.58;3.50;;;;;;;26.18;54.69;99603.47;1747977;82;21319;-80
2023/07/14 01:09:28;;;;;;;7.12;3.17;;;;;;;26.24;54.57;99602.27;1746398;82;21318;-80
2023/07/14 01:12:34;;;;;;;7.60;3.25;;;;;;;26.44;54.10;99604.59;1745990;82;21327;-79
2023/07/14 01:15:40;;;;;;;5.97;3.20;;;;;;;26.55;53.73;99600.55;1747326;82;21328;-80
2023/07/14 01:18:46;;;;;;;6.15;3.25;;;;;;;26.40;54.32;99595.94;1746225;82;21339;-80
2023/07/14 01:21:52;;;;;;;6.70;3.58;;;;;;;26.58;54.11;99610.33;1743987;82;21873;-80
2023/07/14 01:25:06;;;;;;;7.72;3.55;;;;;;;26.62;54.41;99613.63;1742813;82;21354;-80
2023/07/14 01:28:19;;;;;;;14.20;4.12;;;;;;;26.74;54.55;99610.42;1743633;82;21330;-81
2023/07/14 01:31:28;;;;;;;11.20;3.52;;;;;;;26.70;54.71;99608.77;1744093;82;21889;-80
2023/07/14 01:34:34;;;;;;;10.70;3.77;;;;;;;26.37;55.86;99611.95;1744002;82;21298;-81
2023/07/14 01:37:40;;;;;;;7.65;3.40;;;;;;;26.45;56.15;99617.51;1743923;82;21314;-81
2023/07/14 01:40:46;;;;;;;8.80;3.70;;;;;;;26.73;55.51;99616.59;1744044;82;21327;-81
2023/07/14 01:43:53;;;;;;;10.35;3.40;;;;;;;26.78;55.37;99608.69;1744003;82;21862;-81
2023/07/14 01:47:00;;;;;;;6.83;3.60;;;;;;;26.76;55.67;99610.36;1743983;82;21846;-80
2023/07/14 01:50:06;;;;;;;9.40;3.62;;;;;;;26.99;55.21;99606.42;1744014;82;21303;-80
2023/07/14 01:53:18;;;;;;;5.80;3.12;;;;;;;26.92;55.16;99603.17;1744024;82;21327;-81
2023/07/14 01:56:24;;;;;;;10.15;3.58;;;;;;;26.83;55.27;99598.80;1722583;82;21326;-80
2023/07/14 01:59:33;;;;;;;10.03;4.15;;;;;;;26.77;55.36;99597.17;1743088;82;21338;-80
2023/07/14 02:02:42;;;;;;;6.53;3.70;;;;;;;26.68;55.46;99592.83;1744716;82;21350;-81
2023/07/14 02:05:48;;;;;;;9.53;4.03;;;;;;;26.91;55.00;99581.84;1744179;82;21307;-80
2023/07/14 02:08:53;;;;;;;8.45;4.10;;;;;;;26.80;55.40;99581.16;1743435;82;21303;-80
2023/07/14 02:12:05;;;;;;;14.38;3.37;;;;;;;26.77;55.76;99577.53;1744017;82;21283;-81
2023/07/14 02:15:17;;;;;;;8.60;3.52;;;;;;;26.74;55.96;99565.53;1744092;82;21294;-80
2023/07/14 02:18:25;;;;;;;13.03;3.72;;;;;;;26.70;56.19;99561.66;1744522;82;21311;-80
2023/07/14 02:21:30;;;;;;;8.60;3.37;;;;;;;26.84;55.69;99557.55;1736625;82;21334;-80
2023/07/14 02:24:37;;;;;;;9.98;3.80;;;;;;;26.93;55.44;99571.16;1733907;82;21906;-81
2023/07/14 02:27:44;;;;;;;17.55;4.15;;;;;;;26.82;55.86;99561.20;1733895;82;21291;-80
2023/07/14 02:30:54;;;;;;;7.95;3.72;;;;;;;26.76;56.02;99547.25;1734023;82;21303;-80
2023/07/14 02:34:01;;;;;;;10.38;3.60;;;;;;;27.15;55.06;99552.36;1734125;82;21343;-80
2023/07/14 02:37:08;;;;;;;7.47;3.60;;;;;;;27.03;55.49;99549.13;1734074;82;21859;-80
2023/07/14 02:40:15;;;;;;;11.45;4.30;;;;;;;27.11;55.55;99551.30;1733146;82;21311;-80
2023/07/14 02:43:23;;;;;;;8.65;3.80;;;;;;;26.97;56.23;99546.98;1728786;81;21290;-80
2023/07/14 02:46:39;;;;;;;10.43;4.10;;;;;;;27.00;56.30;99550.56;1685068;85;21338;-80
2023/07/14 02:49:48;;;;;;;7.40;3.77;;;;;;;27.01;56.47;99533.44;1728252;83;21881;-80
2023/07/14 02:52:54;;;;;;;11.78;3.85;;;;;;;27.16;56.32;99532.97;1729686;83;21303;-80
2023/07/14 02:56:01;;;;;;;10.28;4.17;;;;;;;27.16;56.33;99532.39;1684287;85;21345;-80
2023/07/14 02:59:06;;;;;;;7.67;3.75;;;;;;;27.36;56.31;99534.03;1729515;83;21338;-80
2023/07/14 03:02:12;;;;;;;9.45;3.70;;;;;;;27.58;56.02;99533.95;1684735;85;21401;-80
2023/07/14 03:05:18;;;;;;;9.75;3.92;;;;;;;27.28;57.11;99531.08;1729617;83;21295;-80
2023/07/14 03:08:27;;;;;;;10.32;4.00;;;;;;;27.34;57.20;99525.66;1685113;85;21334;-80
2023/07/14 03:11:34;;;;;;;10.55;4.58;;;;;;;27.54;56.92;99528.12;1728795;83;21921;-80
2023/07/14 03:14:40;;;;;;;9.78;4.20;;;;;;;27.46;57.26;99521.80;1707048;84;21305;-80
2023/07/14 03:17:46;;;;;;;11.25;4.37;;;;;;;27.70;56.83;99509.00;1756422;81;21303;-80
2023/07/14 03:20:53;;;;;;;7.47;4.15;;;;;;;27.66;57.13;99505.97;1754473;81;21318;-80
2023/07/14 03:23:59;;;;;;;9.98;4.60;;;;;;;27.90;56.80;99498.84;1765939;81;21850;-80
2023/07/14 03:27:05;;;;;;;10.80;4.55;;;;;;;28.12;56.47;99497.27;1762312;81;21322;-80
2023/07/14 03:30:04;;;;;;;12.18;4.40;;;;;;;28.51;55.64;99500.41;1748271;82;21307;-80
2023/07/14 03:32:58;;;;;;;13.78;4.62;;;;;;;28.84;55.40;99493.75;1747369;82;21303;-80
2023/07/14 03:35:44;;;;;;;10.78;4.62;;;;;;;29.13;54.66;99500.43;1748894;82;21300;-80
2023/07/14 03:38:36;;;;;;;13.10;4.72;;;;;;;29.26;54.27;99500.34;1748849;82;21911;-80
2023/07/14 03:41:22;;;;;;;11.05;4.67;;;;;;;29.68;53.43;99509.43;1747477;82;21331;-80
2023/07/14 03:44:27;;;;;;;14.80;5.07;;;;;;;29.83;53.04;99504.53;1776620;81;21298;-80
2023/07/14 03:47:33;;;;;;;10.98;5.53;;;;;;;30.04;52.30;99503.66;1776442;81;21294;-80
2023/07/14 03:50:42;;;;;;;11.08;4.42;;;;;;;30.15;52.11;99495.76;1775638;81;21299;-80
2023/07/14 03:53:47;;;;;;;14.23;5.15;;;;;;;30.40;51.93;99483.50;1753847;81;21346;-80
2023/07/14 03:56:55;;;;;;;14.85;4.97;;;;;;;30.77;50.67;99483.48;1776910;81;21322;-80
2023/07/14 04:00:00;;;;;;;11.45;5.53;;;;;;;30.98;50.08;99483.67;1742113;82;21334;-80
2023/07/14 04:03:15;;;;;;;11.25;4.90;;;;;;;30.38;50.57;99489.45;1741285;82;21326;-80
2023/07/14 04:06:22;;;;;;;17.30;5.00;;;;;;;30.27;51.01;99491.75;1740855;82;21295;-80
2023/07/14 04:09:27;;;;;;;12.43;4.85;;;;;;;30.26;51.06;99485.86;1742176;82;21303;-80
2023/07/14 04:12:34;;;;;;;13.88;5.45;;;;;;;30.36;50.73;99476.84;1741737;81;21323;-80
2023/07/14 04:15:40;;;;;;;15.68;5.60;;;;;;;30.32;50.94;99494.17;1750754;82;21305;-80
2023/07/14 04:18:47;;;;;;;12.75;5.10;;;;;;;30.37;50.99;99503.31;1749104;81;21883;-80
2023/07/14 04:21:54;;;;;;;16.67;4.83;;;;;;;30.53;51.29;99495.20;1749283;81;21230;-80
2023/07/14 04:24:59;;;;;;;18.48;6.45;;;;;;;30.90;50.96;99497.20;1753608;82;21293;-80
2023/07/14 04:28:06;;;;;;;12.37;5.55;;;;;;;31.09;50.69;99501.11;1752014;81;21691;-80
2023/07/14 04:31:12;;;;;;;13.58;5.78;;;;;;;31.36;50.06;99489.49;1752651;82;21333;-80
2023/07/14 04:34:17;;;;;;;15.32;5.40;;;;;;;31.64;49.19;99487.70;1753352;82;21325;-80
2023/07/14 04:37:23;;;;;;;11.85;5.20;;;;;;;32.09;47.69;99485.80;1751843;82;21304;-80
2023/07/14 04:40:28;;;;;;;13.53;5.67;;;;;;;32.17;47.54;99485.77;1753330;82;21345;-80
2023/07/14 04:43:34;;;;;;;10.50;5.00;;;;;;;32.35;47.42;99490.76;1749073;80;21904;-80
2023/07/14 04:46:34;;;;;;;11.43;5.12;;;;;;;32.21;47.59;99491.00;1700192;84;21320;-80
2023/07/14 04:49:40;;;;;;;15.53;5.78;;;;;;;32.20;47.85;99490.76;1699727;84;21343;-80
2023/07/14 04:52:47;;;;;;;18.15;6.05;;;;;;;32.10;48.21;99491.14;1699796;84;21336;-80
2023/07/14 04:55:54;;;;;;;17.05;5.78;;;;;;;32.16;47.84;99501.67;1699720;84;21320;-80
2023/07/14 04:59:00;;;;;;;14.13;5.85;;;;;;;31.99;48.04;99502.56;1721087;82;21312;-80
2023/07/14 05:02:07;;;;;;;16.02;5.60;;;;;;;32.33;48.25;99506.44;1740302;81;21319;-80
2023/07/14 05:05:24;;;;;;;17.45;5.62;;;;;;;32.48;47.99;99501.62;1740291;82;21344;-80
2023/07/14 05:08:29;;;;;;;15.03;5.33;;;;;;;32.22;48.30;99511.03;1741683;82;21295;-80
2023/07/14 05:11:34;;;;;;;19.05;6.12;;;;;;;31.91;48.85;99519.00;1741170;82;21819;-80
2023/07/14 05:14:40;;;;;;;18.27;6.20;;;;;;;32.37;47.60;99518.73;1741567;82;21300;-80
2023/07/14 05:17:47;;;;;;;16.02;6.03;;;;;;;32.16;48.00;99523.72;1724739;82;21315;-80
2023/07/14 05:20:55;;;;;;;15.98;6.60;;;;;;;32.15;48.23;99524.89;1735076;82;21316;-80
2023/07/14 05:24:01;;;;;;;20.85;6.35;;;;;;;31.96;48.88;99523.06;1719476;83;21354;-80
2023/07/14 05:27:06;;;;;;;19.35;6.67;;;;;;;32.15;48.95;99529.73;1727547;83;21320;-80
2023/07/14 05:30:14;;;;;;;15.23;6.08;;;;;;;32.19;48.94;99517.98;1710650;83;21308;-80
2023/07/14 05:33:20;;;;;;;16.20;6.62;;;;;;;32.70;48.30;99495.66;1686572;85;21304;-80
2023/07/14 05:36:26;;;;;;;17.32;6.53;;;;;;;32.56;48.20;99500.75;1686624;85;21319;-80
2023/07/14 05:39:31;;;;;;;21.05;6.80;;;;;;;32.83;47.50;99499.38;1718578;83;21869;-80
2023/07/14 05:42:37;;;;;;;14.18;5.83;;;;;;;32.87;47.83;99499.53;1720103;83;21332;-81
2023/07/14 05:45:47;;;;;;;18.80;5.92;;;;;;;33.22;46.71;99491.03;1699039;84;21335;-81
2023/07/14 05:48:51;;;;;;;15.40;6.35;;;;;;;33.62;45.73;99498.98;1699193;84;21894;-81
2023/07/14 05:51:59;;;;;;;15.48;6.53;;;;;;;33.62;45.73;99498.98;1710507;83;21299;-81
2023/07/14 05:55:05;;;;;;;15.18;5.87;;;;;;;33.24;46.34;99488.66;1707085;83;22584;-80
2023/07/14 05:58:10;;;;;;;26.97;6.40;;;;;;;33.24;46.63;99484.41;1720246;83;21988;-81
2023/07/14 06:01:16;;;;;;;15.48;6.42;;;;;;;33.58;46.00;99479.59;1699140;84;21894;-80
2023/07/14 06:04:23;;;;;;;21.05;6.35;;;;;;;33.58;46.00;99479.59;1701255;83;21205;-80
2023/07/14 06:07:31;;;;;;;14.95;5.92;;;;;;;34.10;45.69;99477.59;1707045;83;21323;-80
2023/07/14 06:10:23;;;;;;;14.23;5.45;;;;;;;34.10;45.69;99477.59;1716515;83;21304;-80
2023/07/14 06:13:29;;;;;;;15.55;5.90;;;;;;;34.20;44.73;99478.53;1705097;84;21344;-80
2023/07/14 06:16:35;;;;;;;13.45;5.72;;;;;;;34.20;44.73;99478.53;1699210;84;21339;-80
2023/07/14 06:19:41;;;;;;;13.30;6.05;;;;;;;34.28;44.33;99473.34;1699099;84;21867;-80
2023/07/14 06:22:48;;;;;;;13.80;6.28;;;;;;;34.28;44.33;99473.34;1698545;84;22694;-80
2023/07/14 06:25:57;;;;;;;15.25;6.50;;;;;;;34.21;44.87;99475.95;1696176;84;21340;-81
2023/07/14 06:29:04;;;;;;;13.20;6.30;;;;;;;34.25;45.58;99468.39;1756060;81;21323;-80
2023/07/14 06:32:10;;;;;;;13.70;6.03;;;;;;;34.48;44.63;99471.58;1728151;82;21874;-80
2023/07/14 06:35:17;;;;;;;12.15;6.75;;;;;;;34.48;44.63;99471.58;1767882;81;21316;-81
2023/07/14 06:38:23;;;;;;;16.17;6.15;;;;;;;34.52;43.68;99467.44;1764592;81;21293;-80
2023/07/14 06:41:30;;;;;;;12.13;6.35;;;;;;;34.59;43.47;99476.20;1760694;81;21295;-80
2023/07/14 06:44:36;;;;;;;14.25;6.45;;;;;;;34.57;43.47;99465.77;1751165;81;21291;-80
2023/07/14 06:47:42;;;;;;;11.83;6.42;;;;;;;34.55;43.32;99468.16;1754959;81;21332;-80
2023/07/14 06:50:49;;;;;;;14.20;6.75;;;;;;;34.48;43.54;99466.49;1756767;80;21303;-81
2023/07/14 06:53:56;;;;;;;13.35;7.80;;;;;;;34.68;43.59;99465.53;1765293;81;21264;-80
2023/07/14 06:57:03;;;;;;;20.02;8.23;;;;;;;34.77;43.32;99466.23;1767447;79;21269;-81
2023/07/14 07:00:12;;;;;;;10.85;7.25;;;;;;;34.70;43.63;99465.17;1774174;80;21286;-81
2023/07/14 07:03:18;;;;;;;18.27;8.00;;;;;;;34.74;43.21;99474.63;1763470;81;21334;-80
2023/07/14 07:06:25;;;;;;;17.80;7.90;;;;;;;34.54;43.65;99473.61;1761763;80;21327;-80
2023/07/14 07:09:30;;;;;;;13.00;6.95;;;;;;;34.36;44.36;99473.59;1778525;80;21800;-80
2023/07/14 07:12:36;;;;;;;14.73;7.95;;;;;;;34.36;44.95;99467.91;1754979;80;21831;-81
2023/07/14 07:15:43;;;;;;;19.52;8.58;;;;;;;34.78;43.94;99471.31;1753875;81;21299;-80
2023/07/14 07:18:42;;;;;;;14.18;8.40;;;;;;;34.76;43.73;99468.81;1766976;81;21289;-80
2023/07/14 07:21:49;;;;;;;16.00;8.05;;;;;;;34.66;43.65;99457.95;1725009;81;21299;-81
2023/07/14 07:24:55;;;;;;;17.12;8.43;;;;;;;34.82;43.63;99446.09;1758343;81;21319;-80
2023/07/14 07:28:00;;;;;;;16.02;7.92;;;;;;;34.67;44.59;99438.30;1760014;80;21284;-80
2023/07/14 07:31:14;;;;;;;16.32;7.80;;;;;;;34.79;44.68;99442.54;1728294;81;21267;-80
2023/07/14 07:34:21;;;;;;;16.07;8.50;;;;;;;34.83;44.71;99448.34;1763386;79;21290;-81
2023/07/14 07:37:31;;;;;;;21.65;7.85;;;;;;;34.79;44.36;99445.37;1763576;80;21217;-81
2023/07/14 07:40:37;;;;;;;16.30;7.97;;;;;;;34.83;44.09;99437.80;1759485;80;21288;-81
2023/07/14 07:43:43;;;;;;;21.52;7.40;;;;;;;34.99;43.97;99434.22;1756790;81;21933;-81
2023/07/14 07:46:49;;;;;;;16.23;7.37;;;;;;;35.25;44.29;99432.34;1761638;80;21300;-81
2023/07/14 07:49:54;;;;;;;20.85;7.90;;;;;;;35.61;43.33;99428.48;1729089;82;21271;-81
2023/07/14 07:53:00;;;;;;;16.17;6.95;;;;;;;35.86;42.84;99439.70;1766339;81;21300;-81
2023/07/14 07:56:07;;;;;;;19.52;7.10;;;;;;;35.90;42.71;99433.48;1730944;82;21306;-80
2023/07/14 07:59:18;;;;;;;14.50;6.58;;;;;;;36.22;42.01;99425.79;1759520;81;21815;-81
2023/07/14 08:02:21;;;;;;;12.63;6.15;;;;;;;36.33;41.68;99424.05;1721556;82;21326;-81
2023/07/14 08:05:26;;;;;;;13.62;6.25;;;;;;;36.35;41.20;99418.19;1749263;79;21346;-81
2023/07/14 08:08:33;;;;;;;12.93;5.95;;;;;;;36.38;41.33;99409.52;1766789;79;21161;-81
2023/07/14 08:11:38;;;;;;;12.95;5.87;;;;;;;37.05;40.63;99413.08;1769646;80;21299;-81
2023/07/14 08:15:04;;;;;;;13.48;6.22;;;;;;;37.30;40.02;99417.84;1759114;79;21183;-81
2023/07/14 08:18:09;;;;;;;10.85;5.70;;;;;;;37.41;39.65;99414.41;1761395;81;21892;-81
2023/07/14 08:21:14;;;;;;;11.73;5.80;;;;;;;37.49;39.61;99404.19;1751672;81;21902;-81
2023/07/14 08:24:21;;;;;;;16.85;6.22;;;;;;;37.43;39.53;99402.03;1727693;82;21303;-81
2023/07/14 08:27:28;;;;;;;11.12;5.40;;;;;;;37.45;39.25;99391.88;1721461;82;21299;-81
2023/07/14 08:30:35;;;;;;;10.32;5.47;;;;;;;37.83;38.76;99390.11;1698109;83;21289;-80
2023/07/14 08:33:45;;;;;;;12.30;5.67;;;;;;;37.52;39.20;99383.47;1724177;82;21926;-81
2023/07/14 08:36:48;;;;;;;11.60;5.28;;;;;;;37.60;38.87;99386.68;1728981;81;21327;-81
2023/07/14 08:39:54;;;;;;;13.53;5.60;;;;;;;37.65;38.71;99381.87;1718090;83;21303;-81
2023/07/14 08:43:31;;;;;;;14.60;5.12;;;;;;;37.69;38.66;99380.73;1720022;83;21930;-81
2023/07/14 08:47:04;;;;;;;11.95;4.95;;;;;;;37.68;38.59;99380.48;1723475;81;21339;-81
2023/07/14 08:50:16;;;;;;;12.40;6.00;;;;;;;37.52;38.58;99385.50;1712391;83;21308;-80
2023/07/14 08:53:32;;;;;;;20.60;6.28;;;;;;;37.49;38.07;99384.83;1719655;83;21862;-80
2023/07/14 08:56:42;;;;;;;13.28;4.65;;;;;;;37.78;37.82;99382.72;1721943;83;21331;-81
2023/07/14 08:59:49;;;;;;;12.53;4.75;;;;;;;37.80;37.87;99373.16;1720661;81;21874;-80
2023/07/14 09:03:00;;;;;;;9.15;4.72;;;;;;;37.59;38.14;99369.92;1712403;81;21322;-81
2023/07/14 09:06:10;;;;;;;11.63;5.37;;;;;;;37.63;38.16;99367.14;1695972;82;21397;-81
2023/07/14 09:09:22;;;;;;;14.07;5.28;;;;;;;37.90;37.76;99364.59;1718611;81;21300;-81
2023/07/14 09:12:38;;;;;;;10.55;4.90;;;;;;;37.94;37.79;99350.38;1722894;82;22533;-81
2023/07/14 09:15:43;;;;;;;15.28;4.78;;;;;;;37.64;37.96;99341.08;1722971;82;21298;-82
2023/07/14 09:19:07;;;;;;;9.88;5.08;;;;;;;37.75;37.98;99344.95;1723449;82;21315;-82
2023/07/14 09:22:24;;;;;;;9.10;5.50;;;;;;;37.88;37.39;99343.34;1718865;82;21374;-80
2023/07/14 09:25:49;;;;;;;11.35;5.90;;;;;;;38.09;37.03;99343.07;1727963;81;21220;-81
2023/07/14 09:28:58;;;;;;;13.95;5.95;;;;;;;37.77;36.94;99335.39;1713002;83;22568;-81
2023/07/14 09:32:18;;;;;;;11.95;5.67;;;;;;;37.39;37.84;99321.30;1766771;81;21844;-81
2023/07/14 09:35:31;;;;;;;10.98;5.62;;;;;;;37.56;37.99;99319.37;1763141;80;21335;-80
2023/07/14 09:39:08;;;;;;;11.65;5.90;;;;;;;37.43;38.34;99315.87;1751913;81;22462;-81
2023/07/14 09:42:08;;;;;;;10.53;5.35;;;;;;;37.66;38.14;99314.44;1736514;82;21311;-81
2023/07/14 09:45:23;;;;;;;13.22;5.78;;;;;;;37.56;37.55;99317.94;1738146;82;21343;-81
2023/07/14 09:48:41;;;;;;;17.20;6.45;;;;;;;37.36;37.82;99311.46;1751233;81;21201;-81
2023/07/14 09:51:47;;;;;;;13.95;6.12;;;;;;;37.39;37.86;99317.02;1763336;80;21410;-81
2023/07/14 09:55:03;;;;;;;12.33;6.20;;;;;;;37.45;38.25;99315.48;1762148;80;21283;-81
2023/07/14 09:58:09;;;;;;;13.10;5.87;;;;;;;37.61;38.31;99320.47;1770065;81;22527;-81
2023/07/14 10:01:20;;;;;;;12.73;6.20;;;;;;;37.59;38.19;99322.86;1772369;79;21263;-82
2023/07/14 10:04:27;;;;;;;11.97;5.72;;;;;;;37.75;37.79;99323.55;1767591;80;21854;-81
2023/07/14 10:07:43;;;;;;;9.10;5.42;;;;;;;37.88;37.55;99314.80;1769919;80;21216;-81
2023/07/14 10:10:44;;;;;;;11.15;5.90;;;;;;;37.68;37.54;99302.64;1767080;80;21320;-81
2023/07/14 10:14:10;;;;;;;10.82;5.83;;;;;;;37.90;37.05;99300.37;1740865;81;21295;-81
2023/07/14 10:17:21;;;;;;;16.40;6.37;;;;;;;37.93;37.31;99291.66;1758925;81;21295;-81
2023/07/14 10:20:29;;;;;;;14.15;6.22;;;;;;;37.92;37.16;99281.44;1759514;81;21823;-81
2023/07/14 10:23:35;;;;;;;11.65;5.60;;;;;;;38.20;36.52;99272.45;1751218;81;21360;-81
2023/07/14 10:26:43;;;;;;;15.32;6.30;;;;;;;38.12;36.54;99270.73;1738528;82;21472;-81
2023/07/14 10:30:14;;;;;;;12.93;6.22;;;;;;;38.13;36.73;99266.06;1756953;80;21890;-81
2023/07/14 10:33:34;;;;;;;17.20;6.17;;;;;;;38.17;37.29;99265.50;1739237;81;21272;-81
2023/07/14 10:36:43;;;;;;;14.47;6.03;;;;;;;38.44;36.87;99268.31;1764145;81;21617;-81
2023/07/14 10:39:51;;;;;;;15.35;6.60;;;;;;;38.58;35.86;99265.05;1740357;82;21340;-81
2023/07/14 10:43:06;;;;;;;16.30;7.45;;;;;;;38.60;36.27;99265.47;1738942;81;21287;-81
2023/07/14 10:46:27;;;;;;;19.10;10.18;;;;;;;38.61;35.93;99257.72;1747883;81;21878;-81
2023/07/14 10:49:51;;;;;;;20.68;11.78;;;;;;;38.57;35.54;99252.56;1722787;82;21343;-81
2023/07/14 10:53:02;;;;;;;16.95;10.82;;;;;;;38.48;35.59;99247.77;1762327;80;21321;-81
2023/07/14 10:56:10;;;;;;;23.87;8.73;;;;;;;38.31;35.59;99234.31;1767350;81;21327;-81
2023/07/14 10:59:35;;;;;;;15.05;7.10;;;;;;;38.46;34.64;99234.48;1765282;80;21288;-81
2023/07/14 11:02:44;;;;;;;21.75;6.50;;;;;;;38.46;35.03;99223.06;1751451;81;21346;-81
2023/07/14 11:05:55;;;;;;;12.90;6.00;;;;;;;38.03;35.72;99217.61;1721410;82;21298;-80
2023/07/14 11:09:02;;;;;;;13.53;6.10;;;;;;;38.20;35.90;99211.08;1768192;80;21319;-81
2023/07/14 11:12:09;;;;;;;17.37;5.53;;;;;;;38.31;34.67;99210.05;1764362;81;21323;-81
2023/07/14 11:15:28;;;;;;;18.35;6.53;;;;;;;38.32;34.64;99201.69;1768823;80;21283;-80
2023/07/14 11:18:51;;;;;;;13.05;5.75;;;;;;;38.38;34.20;99206.44;1748463;81;21300;-80
2023/07/14 11:22:12;;;;;;;8.30;5.17;;;;;;;38.65;34.46;99195.73;1740338;82;21300;-81
2023/07/14 11:25:33;;;;;;;10.85;5.17;;;;;;;38.96;34.00;99195.03;1747663;81;21284;-81
2023/07/14 11:28:56;;;;;;;18.10;6.15;;;;;;;39.07;33.16;99204.55;1753325;81;21835;-81
2023/07/14 11:32:05;;;;;;;12.40;5.12;;;;;;;39.14;32.66;99198.88;1751138;80;21309;-80
2023/07/14 11:35:37;;;;;;;14.60;4.83;;;;;;;39.23;32.30;99170.80;1784855;80;21279;-81
2023/07/14 11:38:50;;;;;;;13.53;4.25;;;;;;;39.28;32.67;99154.70;1726008;80;21201;-81
2023/07/14 11:41:56;;;;;;;17.73;5.70;;;;;;;39.09;31.35;99157.79;1751762;80;21303;-81
2023/07/14 11:45:02;;;;;;;14.47;5.37;;;;;;;38.83;32.03;99153.09;1751382;82;21937;-80
2023/07/14 11:48:08;;;;;;;12.68;5.20;;;;;;;38.50;33.06;99162.53;1746750;81;21328;-80
2023/07/14 11:51:24;;;;;;;8.60;4.65;;;;;;;38.08;34.61;99160.78;1699141;84;21391;-80
2023/07/14 11:54:51;;;;;;;7.47;3.60;;;;;;;37.58;34.12;99171.48;1698485;84;21370;-80
2023/07/14 11:58:12;;;;;;;18.50;5.45;;;;;;;37.06;34.06;99181.62;1725338;82;21310;-80
2023/07/14 12:01:34;;;;;;;19.70;3.25;;;;;;;36.65;34.29;99179.02;1727011;83;21310;-80
2023/07/14 12:04:41;;;;;;;8.55;2.85;;;;;;;36.06;34.54;99169.71;1740769;82;21339;-80
2023/07/14 12:08:16;;;;;;;10.98;3.20;;;;;;;35.77;34.27;99154.03;1741094;82;21379;-79
2023/07/14 12:11:35;;;;;;;9.95;3.00;;;;;;;35.51;34.38;99144.70;1734417;82;21898;-80
2023/07/14 12:14:49;;;;;;;5.53;2.92;;;;;;;35.27;34.56;99144.31;1742062;82;21327;-80
2023/07/14 12:17:55;;;;;;;18.87;3.45;;;;;;;35.34;34.36;99162.37;1739956;82;21620;-79
2023/07/14 12:21:21;;;;;;;14.10;3.40;;;;;;;35.22;34.30;99166.73;1739119;82;21300;-79
2023/07/14 12:24:29;;;;;;;8.18;3.87;;;;;;;35.36;34.37;99173.97;1718259;82;21305;-80
2023/07/14 12:27:44;;;;;;;21.60;4.97;;;;;;;35.68;35.02;99174.14;1681413;84;21335;-80
2023/07/14 12:30:55;;;;;;;15.05;4.70;;;;;;;35.80;35.67;99179.68;1707859;84;21350;-79
2023/07/14 12:34:03;;;;;;;11.75;4.90;;;;;;;35.98;36.48;99186.41;1696817;83;21317;-80
2023/07/14 12:37:09;;;;;;;8.05;4.47;;;;;;;36.16;36.16;99179.06;1696888;84;21305;-80
2023/07/14 12:40:25;;;;;;;10.28;4.65;;;;;;;36.30;36.57;99181.38;1695518;84;21321;-79
2023/07/14 12:43:41;;;;;;;10.30;4.60;;;;;;;36.63;36.17;99198.52;1742947;81;21321;-79
2023/07/14 12:46:47;;;;;;;18.07;4.72;;;;;;;37.01;36.19;99217.57;1744128;81;21304;-80
2023/07/14 12:49:59;;;;;;;8.35;4.45;;;;;;;37.05;36.06;99216.43;1770875;81;21288;-79
2023/07/14 12:53:05;;;;;;;8.40;5.53;;;;;;;36.76;36.54;99225.03;1741650;81;21851;-80
2023/07/14 12:56:15;;;;;;;9.00;4.53;;;;;;;36.49;36.92;99216.16;1750137;81;21858;-80
2023/07/14 12:59:25;;;;;;;9.68;5.47;;;;;;;36.26;37.76;99235.98;1702687;84;21330;-79
2023/07/14 13:02:30;;;;;;;12.47;5.53;;;;;;;35.99;37.84;99237.83;1739096;82;21363;-80
2023/07/14 13:05:45;;;;;;;10.32;5.97;;;;;;;35.83;38.36;99242.95;1739827;82;21330;-80
2023/07/14 13:08:56;;;;;;;15.03;7.08;;;;;;;35.52;38.98;99248.69;1738226;82;21372;-79
2023/07/14 13:12:03;;;;;;;27.02;9.23;;;;;;;35.38;40.01;99262.52;1739624;82;21312;-80
2023/07/14 13:15:10;;;;;;;14.85;8.00;;;;;;;35.25;41.10;99264.66;1739173;82;21334;-79
2023/07/14 13:18:31;;;;;;;9.75;5.72;;;;;;;34.92;41.78;99280.59;1739207;81;21299;-79
2023/07/14 13:21:45;;;;;;;10.15;5.22;;;;;;;34.58;40.63;99285.14;1685524;85;21927;-79
2023/07/14 13:25:03;;;;;;;9.20;5.22;;;;;;;34.26;41.53;99299.77;1729526;83;21900;-80
2023/07/14 13:28:29;;;;;;;12.33;6.17;;;;;;;33.59;42.88;99288.47;1714316;83;21948;-79
2023/07/14 13:31:43;;;;;;;12.53;6.10;;;;;;;33.25;43.89;99285.48;1685502;83;21338;-79
2023/07/14 13:34:51;;;;;;;13.22;5.87;;;;;;;33.21;44.84;99285.35;1677192;84;21196;-79
2023/07/14 13:37:56;;;;;;;11.53;5.58;;;;;;;33.20;45.30;99287.95;1726178;83;21313;-80
2023/07/14 13:41:11;;;;;;;11.45;5.85;;;;;;;33.26;45.49;99287.95;1725898;83;21887;-79
2023/07/14 13:44:50;;;;;;;11.95;5.95;;;;;;;33.46;45.27;99292.52;1706090;83;21328;-79
2023/07/14 13:48:02;;;;;;;8.43;5.60;;;;;;;33.44;44.92;99285.77;1724395;83;21305;-80
2023/07/14 13:51:12;;;;;;;13.45;5.58;;;;;;;33.85;44.41;99281.62;1725670;83;21312;-79
2023/07/14 13:54:23;;;;;;;7.95;5.05;;;;;;;33.89;45.20;99274.05;1733766;83;21315;-79
2023/07/14 13:57:30;;;;;;;12.23;6.37;;;;;;;34.14;44.70;99284.78;1733987;83;21308;-79
2023/07/14 14:00:36;;;;;;;9.38;5.87;;;;;;;33.80;45.13;99277.02;1733613;83;21347;-79
2023/07/14 14:03:43;;;;;;;11.53;6.47;;;;;;;33.54;45.94;99280.21;1732579;81;21395;-79
2023/07/14 14:06:54;;;;;;;11.97;6.65;;;;;;;33.88;46.14;99280.33;1726807;83;21241;-79
2023/07/14 14:09:58;;;;;;;8.90;6.28;;;;;;;33.92;45.00;99281.83;1726822;83;21343;-79
2023/07/14 14:12:58;;;;;;;11.33;7.22;;;;;;;33.64;45.83;99275.47;1725793;82;21173;-79
2023/07/14 14:16:05;;;;;;;9.68;6.60;;;;;;;33.56;46.36;99285.77;1726375;83;21901;-79
2023/07/14 14:19:11;;;;;;;10.40;5.58;;;;;;;33.85;45.71;99295.20;1726255;83;21335;-79
2023/07/14 14:22:11;;;;;;;8.53;5.70;;;;;;;33.88;44.30;99303.58;1725987;83;21371;-79
2023/07/14 14:25:22;;;;;;;26.35;5.33;;;;;;;33.54;45.12;99300.05;1725364;83;21922;-80
2023/07/14 14:28:28;;;;;;;5.10;3.80;;;;;;;33.50;44.68;99301.38;1725489;83;21346;-79
2023/07/14 14:31:34;;;;;;;5.10;3.85;;;;;;;33.42;44.10;99305.70;1725515;83;21300;-79
2023/07/14 14:34:40;;;;;;;6.08;3.67;;;;;;;33.40;43.92;99309.46;1713627;83;21872;-79
2023/07/14 14:37:45;;;;;;;7.42;3.77;;;;;;;33.41;43.77;99310.55;1703408;84;21345;-79
2023/07/14 14:40:51;;;;;;;12.80;4.00;;;;;;;33.30;43.97;99320.08;1717443;83;21303;-79